createdAt,value
2023-09-28T00:01:05.143Z,99.90
2023-09-28T00:06:08.191Z,99.90
2023-09-28T00:11:11.197Z,99.90
2023-09-28T00:16:14.241Z,99.90
2023-09-28T00:21:17.360Z,99.90
2023-09-28T00:26:20.976Z,99.90
2023-09-28T00:31:24.069Z,99.90
2023-09-28T00:36:27.403Z,99.90
2023-09-28T00:41:30.476Z,99.90
2023-09-28T00:46:34.697Z,99.90
2023-09-28T00:51:40.687Z,99.90
2023-09-28T00:56:43.581Z,99.90
2023-09-28T01:01:48.584Z,99.90
2023-09-28T01:06:52.495Z,99.90
2023-09-28T01:11:56.897Z,99.90
2023-09-28T01:16:59.976Z,99.90
2023-09-28T01:22:03.996Z,99.90
2023-09-28T01:27:08.125Z,99.90
2023-09-28T01:32:11.256Z,99.90
2023-09-28T01:37:14.578Z,99.90
2023-09-28T01:42:17.578Z,99.90
2023-09-28T01:47:20.460Z,99.90
2023-09-28T01:52:23.484Z,99.90
2023-09-28T01:57:26.641Z,99.90
2023-09-28T02:02:30.618Z,99.90
2023-09-28T02:07:35.620Z,99.90
2023-09-28T02:12:45.129Z,99.90
2023-09-28T02:17:48.342Z,99.90
2023-09-28T02:22:54.323Z,99.90
2023-09-28T02:27:58.007Z,99.90
2023-09-28T02:33:01.875Z,99.90
2023-09-28T02:38:04.849Z,99.90
2023-09-28T02:43:08.194Z,99.90
2023-09-28T02:48:12.228Z,99.90
2023-09-28T02:53:15.793Z,99.90
2023-09-28T02:58:18.689Z,99.90
2023-09-28T03:03:21.774Z,99.90
2023-09-28T03:08:25.419Z,99.90
2023-09-28T03:13:28.692Z,99.90
2023-09-28T03:18:31.900Z,99.90
2023-09-28T03:23:35.030Z,99.90
2023-09-28T03:28:38.571Z,99.90
2023-09-28T03:33:42.369Z,99.90
2023-09-28T03:38:45.360Z,99.90
2023-09-28T03:43:49.779Z,99.90
2023-09-28T03:48:52.697Z,99.90
2023-09-28T03:53:56.699Z,99.90
2023-09-28T03:58:59.710Z,99.90
2023-09-28T04:04:02.809Z,99.90
2023-09-28T04:09:08.821Z,99.90
2023-09-28T04:14:12.086Z,99.90
2023-09-28T04:19:15.299Z,99.90
2023-09-28T04:24:19.024Z,99.90
2023-09-28T04:29:22.233Z,99.90
2023-09-28T04:34:25.677Z,99.90
2023-09-28T04:39:28.780Z,99.90
2023-09-28T04:44:32.417Z,99.90
2023-09-28T04:49:35.720Z,99.90
2023-09-28T04:54:39.424Z,99.90
2023-09-28T04:59:43.166Z,99.90
2023-09-28T05:04:46.542Z,99.90
2023-09-28T05:09:49.705Z,99.90
2023-09-28T05:14:53.719Z,99.90
2023-09-28T05:19:56.841Z,99.90
2023-09-28T05:24:59.940Z,99.90
2023-09-28T05:30:04.953Z,99.90
2023-09-28T05:35:08.441Z,99.90
2023-09-28T05:40:11.891Z,99.90
2023-09-28T05:45:15.056Z,99.90
2023-09-28T05:50:19.991Z,99.90
2023-09-28T05:55:24.161Z,99.90
2023-09-28T06:00:27.653Z,99.90
2023-09-28T06:05:30.779Z,99.90
2023-09-28T06:10:34.955Z,99.90
2023-09-28T06:15:38.037Z,99.90
2023-09-28T06:20:42.851Z,99.90
2023-09-28T06:25:46.316Z,99.90
2023-09-28T06:30:49.207Z,99.90
2023-09-28T06:35:52.682Z,99.90
2023-09-28T06:40:56.912Z,99.90
2023-09-28T06:46:00.037Z,99.90
2023-09-28T06:51:03.206Z,99.90
2023-09-28T06:56:14.355Z,99.90
2023-09-28T07:01:17.940Z,99.90
2023-09-28T07:06:23.010Z,99.90
2023-09-28T07:11:27.613Z,99.90
2023-09-28T07:16:31.305Z,99.90
2023-09-28T07:21:34.407Z,99.90
2023-09-28T07:26:37.406Z,99.90
2023-09-28T07:31:40.491Z,99.90
2023-09-28T07:36:43.506Z,99.90
2023-09-28T07:41:46.659Z,99.90
2023-09-28T07:46:49.926Z,99.90
2023-09-28T07:51:56.423Z,99.90
2023-09-28T07:56:59.399Z,99.90
2023-09-28T08:02:03.865Z,99.90
2023-09-28T08:07:06.697Z,99.90
2023-09-28T08:12:30.866Z,99.90
2023-09-28T08:17:44.829Z,99.90
2023-09-28T08:22:49.355Z,99.90
2023-09-28T08:27:52.693Z,99.90
2023-09-28T08:32:56.322Z,99.90
2023-09-28T08:37:59.671Z,99.90
2023-09-28T08:43:06.463Z,99.90
2023-09-28T08:48:13.387Z,99.90
2023-09-28T08:53:18.984Z,99.90
2023-09-28T08:58:22.545Z,99.90
2023-09-28T09:03:27.166Z,99.90
2023-09-28T09:08:34.829Z,99.90
2023-09-28T09:13:54.938Z,99.90
2023-09-28T09:19:00.758Z,99.90
2023-09-28T09:24:05.985Z,99.90
2023-09-28T09:29:10.826Z,99.90
2023-09-28T09:34:16.230Z,99.90
2023-09-28T09:39:24.953Z,99.90
2023-09-28T09:44:32.002Z,99.90
2023-09-28T09:49:35.168Z,99.90
2023-09-28T09:54:39.943Z,99.20
2023-09-28T09:59:49.420Z,98.70
2023-09-28T10:04:56.627Z,98.40
2023-09-28T10:10:00.667Z,97.60
2023-09-28T10:15:04.408Z,97.00
2023-09-28T10:20:08.770Z,97.10
2023-09-28T10:25:17.732Z,95.70
2023-09-28T10:30:23.590Z,94.30
2023-09-28T10:35:32.888Z,92.00
2023-09-28T10:40:48.328Z,91.30
2023-09-28T10:45:54.175Z,90.80
2023-09-28T10:50:57.874Z,91.00
2023-09-28T10:56:00.978Z,88.30
2023-09-28T11:01:08.433Z,87.20
2023-09-28T11:06:12.018Z,84.50
2023-09-28T11:11:17.907Z,83.70
2023-09-28T11:16:21.300Z,83.70
2023-09-28T11:21:25.272Z,83.10
2023-09-28T11:26:30.470Z,80.00
2023-09-28T11:31:37.471Z,77.30
2023-09-28T11:36:43.318Z,77.50
2023-09-28T11:42:00.909Z,78.00
2023-09-28T11:47:07.488Z,73.80
2023-09-28T11:52:12.114Z,72.30
2023-09-28T11:57:18.460Z,70.80
2023-09-28T12:02:22.782Z,67.50
2023-09-28T12:07:26.440Z,67.30
2023-09-28T12:12:29.744Z,63.90
2023-09-28T12:17:33.088Z,64.40
2023-09-28T12:22:37.379Z,64.10
2023-09-28T12:27:41.855Z,62.70
2023-09-28T12:32:47.503Z,63.00
2023-09-28T12:37:51.398Z,61.70
2023-09-28T12:42:54.777Z,61.30
2023-09-28T12:47:58.836Z,61.40
2023-09-28T12:53:03.326Z,60.00
2023-09-28T12:58:06.760Z,57.20
2023-09-28T13:03:11.149Z,55.70
2023-09-28T13:08:15.300Z,58.70
2023-09-28T13:13:18.432Z,55.80
2023-09-28T13:18:22.848Z,56.70
2023-09-28T13:23:26.977Z,54.90
2023-09-28T13:28:30.133Z,54.80
2023-09-28T13:33:39.415Z,53.20
2023-09-28T13:38:44.007Z,54.40
2023-09-28T13:43:47.483Z,53.40
2023-09-28T13:48:51.091Z,54.80
2023-09-28T13:53:54.773Z,54.40
2023-09-28T13:58:58.188Z,49.00
2023-09-28T14:04:01.679Z,46.90
2023-09-28T14:09:05.578Z,48.10
2023-09-28T14:14:10.413Z,47.80
2023-09-28T14:19:14.784Z,45.50
2023-09-28T14:24:18.188Z,45.10
2023-09-28T14:29:21.429Z,45.40
2023-09-28T14:34:24.513Z,45.90
2023-09-28T14:39:28.816Z,46.20
2023-09-28T14:44:32.586Z,46.60
2023-09-28T14:49:35.713Z,46.80
2023-09-28T14:54:38.756Z,47.20
2023-09-28T14:59:41.854Z,47.70
2023-09-28T15:04:45.096Z,48.30
2023-09-28T15:09:49.864Z,48.50
2023-09-28T15:14:53.076Z,48.80
2023-09-28T15:19:56.185Z,49.30
2023-09-28T15:24:59.721Z,49.50
2023-09-28T15:30:06.534Z,49.30
2023-09-28T15:35:11.269Z,49.70
2023-09-28T15:40:14.826Z,50.10
2023-09-28T15:45:18.616Z,50.90
2023-09-28T15:50:22.747Z,50.40
2023-09-28T15:55:26.500Z,51.30
2023-09-28T16:00:37.878Z,52.60
2023-09-28T16:05:42.091Z,53.10
2023-09-28T16:10:47.371Z,53.60
2023-09-28T16:15:50.683Z,54.10
2023-09-28T16:20:53.884Z,55.10
2023-09-28T16:25:57.227Z,55.90
2023-09-28T16:31:00.672Z,56.10
2023-09-28T16:36:04.047Z,58.20
2023-09-28T16:41:07.346Z,59.70
2023-09-28T16:46:10.850Z,61.10
2023-09-28T16:51:14.449Z,63.70
2023-09-28T16:56:18.316Z,64.40
2023-09-28T17:01:21.644Z,68.30
2023-09-28T17:06:24.967Z,68.40
2023-09-28T17:11:29.201Z,71.10
2023-09-28T17:16:32.901Z,72.00
2023-09-28T17:21:37.232Z,74.80
2023-09-28T17:26:40.862Z,78.70
2023-09-28T17:31:44.192Z,84.50
2023-09-28T17:36:50.359Z,88.90
2023-09-28T17:41:53.641Z,91.10
2023-09-28T17:46:57.126Z,91.90
2023-09-28T17:52:00.898Z,93.60
2023-09-28T17:57:04.431Z,96.40
2023-09-28T18:02:10.054Z,97.90
2023-09-28T18:07:13.993Z,99.30
2023-09-28T18:12:17.831Z,99.90
2023-09-28T18:17:21.559Z,99.90
2023-09-28T18:22:25.592Z,99.90
2023-09-28T18:27:30.315Z,99.90
2023-09-28T18:32:34.738Z,99.90
2023-09-28T18:37:39.991Z,99.90
2023-09-28T18:49:05.971Z,99.90
2023-09-28T18:54:10.117Z,99.90
2023-09-28T18:59:15.310Z,99.90
2023-09-28T19:04:19.112Z,99.90
2023-09-28T19:09:23.271Z,99.90
2023-09-28T19:14:27.385Z,99.90
2023-09-28T19:19:31.515Z,99.90
2023-09-28T19:24:39.277Z,99.90
2023-09-28T19:29:44.014Z,99.90
2023-09-28T19:34:47.807Z,99.90
2023-09-28T19:39:51.829Z,99.90
2023-09-28T19:44:55.446Z,99.90
2023-09-28T19:49:59.012Z,99.90
2023-09-28T19:55:05.017Z,99.90
2023-09-28T20:00:11.735Z,99.90
2023-09-28T20:05:17.207Z,99.90
2023-09-28T20:10:20.610Z,99.90
2023-09-28T20:15:24.013Z,99.90
2023-09-28T20:20:27.735Z,99.90
2023-09-28T20:25:30.755Z,99.90
2023-09-28T20:30:34.149Z,99.90
2023-09-28T20:35:37.827Z,99.90
2023-09-28T20:40:41.369Z,99.90
2023-09-28T20:45:45.131Z,99.90
2023-09-28T20:50:48.639Z,99.90
2023-09-28T20:55:51.987Z,99.90
2023-09-28T21:00:55.767Z,99.90
2023-09-28T21:05:59.266Z,99.90
2023-09-28T21:11:02.938Z,99.90
2023-09-28T21:16:07.239Z,99.90
2023-09-28T21:21:10.779Z,99.90
2023-09-28T21:26:14.023Z,99.90
2023-09-28T21:31:17.651Z,99.90
2023-09-28T21:36:21.021Z,99.90
2023-09-28T21:41:24.057Z,99.90
2023-09-28T21:46:28.248Z,99.90
2023-09-28T21:51:31.198Z,99.90
2023-09-28T21:56:34.520Z,99.90
2023-09-28T22:01:39.888Z,99.90
2023-09-28T22:06:43.530Z,99.90
2023-09-28T22:11:46.590Z,99.90
2023-09-28T22:16:49.976Z,99.90
2023-09-28T22:21:53.010Z,99.90
2023-09-28T22:26:56.429Z,99.90
2023-09-28T22:32:00.266Z,99.90
2023-09-28T22:37:06.701Z,99.90
2023-09-28T22:42:09.979Z,99.90
2023-09-28T22:47:14.361Z,99.90
2023-09-28T22:52:18.350Z,99.90
2023-09-28T22:57:22.506Z,99.90
2023-09-28T23:02:26.094Z,99.90
2023-09-28T23:07:29.762Z,99.90
2023-09-28T23:12:33.373Z,99.90
2023-09-28T23:17:37.237Z,99.90
2023-09-28T23:22:45.526Z,99.90
2023-09-28T23:27:49.834Z,99.90
2023-09-28T23:32:53.023Z,99.90
2023-09-28T23:37:57.059Z,99.90
2023-09-28T23:43:00.070Z,99.90
2023-09-28T23:48:06.712Z,99.90
2023-09-28T23:53:10.858Z,99.90
2023-09-28T23:58:14.337Z,99.90
